createdAt,value
2018-03-02T00:00:22.372Z,992.02
2018-03-02T00:01:22.629Z,992.08
2018-03-02T00:02:22.347Z,992.08
2018-03-02T00:03:22.335Z,992.09
2018-03-02T00:04:22.324Z,992.07
2018-03-02T00:05:22.313Z,992.11
2018-03-02T00:06:22.300Z,992.11
2018-03-02T00:07:22.300Z,992.05
2018-03-02T00:08:22.276Z,992.07
2018-03-02T00:09:22.264Z,992.08
2018-03-02T00:10:22.254Z,992.07
2018-03-02T00:11:22.241Z,992.10
2018-03-02T00:12:22.246Z,992.08
2018-03-02T00:13:22.219Z,992.00
2018-03-02T00:14:22.205Z,991.98
2018-03-02T00:15:22.194Z,992.00
2018-03-02T00:16:22.186Z,992.04
2018-03-02T00:17:22.170Z,992.01
2018-03-02T00:18:22.429Z,991.99
2018-03-02T00:19:22.147Z,992.02
2018-03-02T00:20:22.134Z,991.99
2018-03-02T00:21:22.121Z,992.01
2018-03-02T00:22:22.108Z,991.99
2018-03-02T00:23:22.099Z,992.05
2018-03-02T00:24:22.097Z,991.99
2018-03-02T00:25:22.075Z,992.02
2018-03-02T00:26:22.062Z,991.97
2018-03-02T00:27:22.051Z,991.97
2018-03-02T00:28:22.039Z,991.92
2018-03-02T00:29:22.059Z,991.94
2018-03-02T00:30:22.014Z,991.91
2018-03-02T00:31:22.003Z,991.88
2018-03-02T00:32:21.990Z,991.82
2018-03-02T00:33:21.977Z,991.82
2018-03-02T00:34:21.967Z,991.77
2018-03-02T00:35:21.965Z,991.69
2018-03-02T00:36:21.943Z,991.72
2018-03-02T00:37:21.930Z,991.71
2018-03-02T00:38:21.918Z,991.68
2018-03-02T00:39:21.907Z,991.63
2018-03-02T00:40:21.910Z,991.60
2018-03-02T00:41:21.882Z,991.64
2018-03-02T00:42:21.874Z,991.66
2018-03-02T00:43:21.858Z,991.63
2018-03-02T00:44:21.846Z,991.62
2018-03-02T00:45:21.836Z,991.61
2018-03-02T00:46:21.833Z,991.62
2018-03-02T00:47:21.811Z,991.64
2018-03-02T00:48:21.798Z,991.59
2018-03-02T00:49:21.787Z,991.63
2018-03-02T00:50:21.775Z,991.64
2018-03-02T00:51:21.777Z,991.60
2018-03-02T00:52:21.751Z,991.60
2018-03-02T00:53:21.739Z,991.61
2018-03-02T00:54:21.726Z,991.58
2018-03-02T00:55:21.715Z,991.58
2018-03-02T00:56:21.702Z,991.54
2018-03-02T00:57:21.707Z,991.55
2018-03-02T00:58:21.679Z,991.54
2018-03-02T00:59:21.667Z,991.49
2018-03-02T01:00:21.655Z,991.53
2018-03-02T01:01:21.643Z,991.45
2018-03-02T01:02:21.645Z,991.51
2018-03-02T01:03:21.618Z,991.50
2018-03-02T01:04:21.606Z,991.46
2018-03-02T01:05:21.594Z,991.47
2018-03-02T01:06:21.582Z,991.43
2018-03-02T01:07:21.570Z,991.41
2018-03-02T01:08:21.568Z,991.42
2018-03-02T01:09:21.545Z,991.39
2018-03-02T01:10:21.533Z,991.34
2018-03-02T01:11:21.521Z,991.31
2018-03-02T01:12:21.511Z,991.30
2018-03-02T01:13:21.514Z,991.30
2018-03-02T01:14:21.485Z,991.27
2018-03-02T01:15:21.473Z,991.23
2018-03-02T01:16:21.462Z,991.21
2018-03-02T01:17:21.452Z,991.20
2018-03-02T01:18:21.436Z,991.22
2018-03-02T01:19:21.440Z,991.25
2018-03-02T01:20:21.414Z,991.16
2018-03-02T01:21:21.405Z,991.25
2018-03-02T01:22:21.387Z,991.24
2018-03-02T01:23:21.376Z,991.22
2018-03-02T01:24:21.365Z,991.25
2018-03-02T01:25:21.364Z,991.28
2018-03-02T01:26:21.340Z,991.22
2018-03-02T01:27:21.328Z,991.11
2018-03-02T01:28:21.316Z,991.14
2018-03-02T01:29:21.304Z,991.07
2018-03-02T01:30:21.308Z,991.10
2018-03-02T01:31:21.279Z,991.08
2018-03-02T01:32:21.267Z,991.11
2018-03-02T01:33:21.255Z,991.15
2018-03-02T01:34:21.256Z,991.13
2018-03-02T01:35:21.234Z,991.15
2018-03-02T01:36:21.231Z,991.07
2018-03-02T01:37:21.207Z,991.07
2018-03-02T01:38:21.195Z,991.07
2018-03-02T01:39:21.183Z,991.06
2018-03-02T01:40:21.171Z,991.07
2018-03-02T01:41:21.174Z,990.99
2018-03-02T01:42:21.146Z,991.02
2018-03-02T01:43:21.134Z,991.01
2018-03-02T01:44:21.123Z,991.05
2018-03-02T01:45:21.111Z,991.01
2018-03-02T01:46:21.100Z,991.04
2018-03-02T01:47:21.096Z,991.03
2018-03-02T01:48:21.074Z,990.98
2018-03-02T01:49:21.061Z,991.04
2018-03-02T01:50:21.048Z,991.03
2018-03-02T01:51:21.038Z,991.01
2018-03-02T01:52:21.041Z,990.99
2018-03-02T01:53:21.013Z,990.98
2018-03-02T01:54:21.005Z,990.96
2018-03-02T01:55:20.988Z,990.95
2018-03-02T01:56:20.976Z,990.98
2018-03-02T01:57:20.965Z,990.99
2018-03-02T01:58:20.962Z,990.98
2018-03-02T01:59:20.940Z,991.00
2018-03-02T02:00:20.928Z,991.01
2018-03-02T02:01:20.916Z,991.05
2018-03-02T02:02:20.903Z,991.05
2018-03-02T02:03:20.905Z,991.02
2018-03-02T02:04:20.879Z,990.97
2018-03-02T02:05:20.871Z,991.00
2018-03-02T02:06:20.854Z,990.99
2018-03-02T02:07:20.842Z,990.95
2018-03-02T02:08:20.830Z,990.96
2018-03-02T02:09:20.828Z,990.94
2018-03-02T02:10:20.807Z,990.91
2018-03-02T02:11:20.793Z,990.95
2018-03-02T02:12:20.781Z,990.96
2018-03-02T02:13:20.770Z,990.92
2018-03-02T02:14:20.772Z,990.92
2018-03-02T02:15:20.746Z,990.95
2018-03-02T02:16:20.732Z,990.90
2018-03-02T02:17:20.721Z,990.90
2018-03-02T02:18:20.711Z,990.95
2018-03-02T02:19:20.696Z,990.94
2018-03-02T02:20:20.938Z,990.96
2018-03-02T02:21:20.672Z,990.96
2018-03-02T02:22:20.659Z,990.91
2018-03-02T02:23:20.645Z,990.96
2018-03-02T02:24:20.635Z,990.95
2018-03-02T02:25:20.623Z,990.91
2018-03-02T02:26:20.620Z,990.92
2018-03-02T02:27:20.598Z,990.92
2018-03-02T02:28:20.587Z,990.86
2018-03-02T02:29:20.574Z,990.89
2018-03-02T02:30:20.562Z,990.83
2018-03-02T02:31:20.567Z,990.82
2018-03-02T02:32:20.535Z,990.76
2018-03-02T02:33:20.526Z,990.75
2018-03-02T02:34:20.512Z,990.70
2018-03-02T02:35:20.501Z,990.69
2018-03-02T02:36:20.488Z,990.67
2018-03-02T02:37:20.489Z,990.66
2018-03-02T02:38:20.466Z,990.65
2018-03-02T02:39:20.452Z,990.63
2018-03-02T02:40:20.445Z,990.69
2018-03-02T02:41:20.429Z,990.64
2018-03-02T02:42:20.439Z,990.64
2018-03-02T02:43:20.405Z,990.58
2018-03-02T02:44:20.392Z,990.58
2018-03-02T02:45:20.387Z,990.61
2018-03-02T02:46:20.365Z,990.60
2018-03-02T02:47:20.353Z,990.60
2018-03-02T02:48:20.355Z,990.58
2018-03-02T02:49:20.331Z,990.56
2018-03-02T02:50:20.318Z,990.54
2018-03-02T02:51:20.304Z,990.52
2018-03-02T02:52:20.292Z,990.49
2018-03-02T02:53:20.296Z,990.42
2018-03-02T02:54:20.268Z,990.44
2018-03-02T02:55:20.255Z,990.44
2018-03-02T02:56:20.243Z,990.43
2018-03-02T02:57:20.234Z,990.49
2018-03-02T02:58:20.217Z,990.48
2018-03-02T02:59:20.478Z,990.45
2018-03-02T03:00:20.194Z,990.43
2018-03-02T03:01:20.182Z,990.41
2018-03-02T03:02:20.168Z,990.43
2018-03-02T03:03:20.157Z,990.39
2018-03-02T03:04:20.146Z,990.36
2018-03-02T03:05:20.143Z,990.39
2018-03-02T03:06:20.120Z,990.39
2018-03-02T03:07:20.108Z,990.40
2018-03-02T03:08:20.097Z,990.38
2018-03-02T03:09:20.083Z,990.40
2018-03-02T03:10:20.086Z,990.38
2018-03-02T03:11:20.072Z,990.34
2018-03-02T03:12:20.046Z,990.32
2018-03-02T03:13:20.034Z,990.34
2018-03-02T03:14:20.022Z,990.36
2018-03-02T03:15:20.008Z,990.37
2018-03-02T03:16:20.008Z,990.39
2018-03-02T03:17:19.985Z,990.35
2018-03-02T03:18:19.973Z,990.35
2018-03-02T03:19:19.959Z,990.37
2018-03-02T03:20:19.947Z,990.38
2018-03-02T03:21:20.205Z,990.34
2018-03-02T03:22:19.923Z,990.27
2018-03-02T03:23:19.911Z,990.30
2018-03-02T03:24:19.898Z,990.31
2018-03-02T03:25:19.886Z,990.25
2018-03-02T03:26:19.874Z,990.24
2018-03-02T03:27:19.871Z,990.22
2018-03-02T03:28:19.849Z,990.27
2018-03-02T03:29:19.840Z,990.23
2018-03-02T03:30:19.824Z,990.23
2018-03-02T03:31:19.813Z,990.19
2018-03-02T03:32:19.823Z,990.21
2018-03-02T03:33:19.797Z,990.16
2018-03-02T03:34:19.777Z,990.20
2018-03-02T03:35:19.763Z,990.17
2018-03-02T03:36:19.751Z,990.25
2018-03-02T03:37:19.758Z,990.18
2018-03-02T03:38:19.736Z,990.21
2018-03-02T03:39:19.714Z,990.13
2018-03-02T03:40:19.701Z,990.18
2018-03-02T03:41:19.689Z,990.18
2018-03-02T03:42:19.691Z,990.16
2018-03-02T03:43:19.664Z,990.12
2018-03-02T03:44:19.656Z,990.16
2018-03-02T03:45:19.640Z,990.13
2018-03-02T03:46:19.629Z,990.09
2018-03-02T03:47:19.614Z,990.09
2018-03-02T03:48:19.617Z,990.09
2018-03-02T03:49:19.589Z,990.06
2018-03-02T03:50:19.577Z,990.05
2018-03-02T03:51:19.565Z,990.01
2018-03-02T03:52:19.553Z,990.01
2018-03-02T03:53:19.545Z,989.99
2018-03-02T03:54:19.538Z,989.95
2018-03-02T03:55:19.516Z,989.98
2018-03-02T03:56:19.503Z,990.00
2018-03-02T03:57:19.491Z,989.91
2018-03-02T03:58:19.478Z,989.98
2018-03-02T03:59:19.475Z,989.95
2018-03-02T04:00:19.454Z,989.94
2018-03-02T04:01:19.442Z,989.93
2018-03-02T04:02:19.429Z,989.91
2018-03-02T04:03:19.422Z,989.95
2018-03-02T04:04:19.418Z,989.91
2018-03-02T04:05:19.392Z,989.89
2018-03-02T04:06:19.380Z,989.94
2018-03-02T04:07:19.366Z,989.92
2018-03-02T04:08:19.354Z,989.90
2018-03-02T04:09:19.348Z,989.86
2018-03-02T04:10:19.344Z,989.83
2018-03-02T04:11:19.317Z,989.81
2018-03-02T04:12:19.304Z,989.76
2018-03-02T04:13:19.293Z,989.78
2018-03-02T04:14:19.279Z,989.74
2018-03-02T04:15:19.267Z,989.72
2018-03-02T04:16:19.264Z,989.71
2018-03-02T04:17:19.244Z,989.71
2018-03-02T04:18:19.229Z,989.68
2018-03-02T04:19:19.216Z,989.68
2018-03-02T04:20:19.205Z,989.64
2018-03-02T04:21:19.208Z,989.60
2018-03-02T04:22:19.180Z,989.57
2018-03-02T04:23:19.192Z,989.56
2018-03-02T04:24:19.156Z,989.59
2018-03-02T04:25:19.144Z,989.63
2018-03-02T04:26:19.130Z,989.62
2018-03-02T04:27:19.134Z,989.61
2018-03-02T04:28:19.106Z,989.58
2018-03-02T04:29:19.094Z,989.60
2018-03-02T04:30:19.080Z,989.59
2018-03-02T04:31:19.068Z,989.64
2018-03-02T04:32:19.056Z,989.59
2018-03-02T04:33:19.054Z,989.60
2018-03-02T04:34:19.041Z,989.61
2018-03-02T04:35:19.019Z,989.55
2018-03-02T04:36:19.006Z,989.54
2018-03-02T04:37:18.995Z,989.56
2018-03-02T04:38:19.000Z,989.49
2018-03-02T04:39:18.973Z,989.46
2018-03-02T04:40:18.956Z,989.49
2018-03-02T04:41:18.947Z,989.41
2018-03-02T04:42:18.932Z,989.42
2018-03-02T04:43:18.919Z,989.41
2018-03-02T04:44:18.924Z,989.43
2018-03-02T04:45:18.895Z,989.46
2018-03-02T04:46:18.882Z,989.44
2018-03-02T04:47:18.869Z,989.50
2018-03-02T04:48:18.857Z,989.51
2018-03-02T04:49:18.847Z,989.45
2018-03-02T04:50:18.845Z,989.48
2018-03-02T04:51:18.820Z,989.43
2018-03-02T04:52:18.807Z,989.51
2018-03-02T04:53:18.795Z,989.43
2018-03-02T04:54:18.782Z,989.41
2018-03-02T04:55:18.790Z,989.38
2018-03-02T04:56:18.757Z,989.38
2018-03-02T04:57:18.745Z,989.34
2018-03-02T04:58:18.734Z,989.32
2018-03-02T04:59:18.720Z,989.34
2018-03-02T05:00:18.704Z,989.31
2018-03-02T05:01:18.710Z,989.26
2018-03-02T05:02:18.682Z,989.27
2018-03-02T05:03:18.675Z,989.29
2018-03-02T05:04:18.658Z,989.27
2018-03-02T05:05:18.645Z,989.23
2018-03-02T05:06:18.633Z,989.24
2018-03-02T05:07:18.630Z,989.30
2018-03-02T05:08:18.609Z,989.20
2018-03-02T05:09:18.596Z,989.20
2018-03-02T05:10:18.583Z,989.14
2018-03-02T05:11:18.570Z,989.15
2018-03-02T05:12:18.573Z,989.11
2018-03-02T05:13:18.544Z,989.06
2018-03-02T05:14:18.534Z,989.10
2018-03-02T05:15:18.522Z,989.05
2018-03-02T05:16:18.511Z,989.05
2018-03-02T05:17:18.498Z,988.99
2018-03-02T05:18:18.500Z,988.99
2018-03-02T05:19:18.473Z,989.04
2018-03-02T05:20:18.462Z,989.01
2018-03-02T05:21:18.449Z,989.02
2018-03-02T05:22:18.436Z,989.05
2018-03-02T05:23:18.425Z,989.01
2018-03-02T05:24:18.422Z,989.00
2018-03-02T05:25:18.403Z,989.02
2018-03-02T05:26:18.387Z,989.04
2018-03-02T05:27:18.376Z,989.00
2018-03-02T05:28:18.364Z,988.95
2018-03-02T05:29:18.370Z,988.97
2018-03-02T05:30:18.340Z,988.98
2018-03-02T05:31:18.328Z,988.96
2018-03-02T05:32:18.317Z,988.95
2018-03-02T05:33:18.304Z,988.90
2018-03-02T05:34:18.291Z,988.94
2018-03-02T05:35:18.296Z,988.96
2018-03-02T05:36:18.269Z,988.91
2018-03-02T05:37:18.257Z,988.91
2018-03-02T05:38:18.248Z,988.90
2018-03-02T05:39:18.231Z,988.91
2018-03-02T05:40:18.221Z,988.87
2018-03-02T05:41:18.218Z,988.97
2018-03-02T05:42:18.198Z,988.97
2018-03-02T05:43:18.185Z,988.94
2018-03-02T05:44:18.172Z,988.90
2018-03-02T05:45:18.160Z,988.91
2018-03-02T05:46:18.163Z,988.91
2018-03-02T05:47:18.136Z,988.89
2018-03-02T05:48:18.124Z,988.87
2018-03-02T05:49:18.114Z,988.86
2018-03-02T05:50:18.099Z,988.87
2018-03-02T05:51:18.086Z,988.84
2018-03-02T05:52:18.093Z,988.83
2018-03-02T05:53:18.063Z,988.84
2018-03-02T05:54:18.051Z,988.80
2018-03-02T05:55:18.040Z,988.84
2018-03-02T05:56:18.028Z,988.87
2018-03-02T05:57:18.023Z,988.85
2018-03-02T05:58:18.072Z,988.81
2018-03-02T05:59:17.993Z,988.78
2018-03-02T06:00:17.981Z,988.76
2018-03-02T06:01:17.968Z,988.80
2018-03-02T06:02:17.952Z,988.72
2018-03-02T06:03:17.943Z,988.71
2018-03-02T06:04:17.957Z,988.74
2018-03-02T06:05:17.921Z,988.73
2018-03-02T06:06:17.907Z,988.71
2018-03-02T06:07:17.895Z,988.65
2018-03-02T06:08:17.883Z,988.70
2018-03-02T06:09:17.871Z,988.64
2018-03-02T06:10:17.874Z,988.68
2018-03-02T06:11:17.850Z,988.66
2018-03-02T06:12:17.834Z,988.69
2018-03-02T06:13:17.823Z,988.65
2018-03-02T06:14:17.812Z,988.69
2018-03-02T06:15:17.799Z,988.70
2018-03-02T06:16:17.796Z,988.69
2018-03-02T06:17:17.775Z,988.66
2018-03-02T06:18:17.764Z,988.65
2018-03-02T06:19:17.749Z,988.64
2018-03-02T06:20:17.738Z,988.60
2018-03-02T06:21:17.742Z,988.62
2018-03-02T06:22:17.714Z,988.63
2018-03-02T06:23:17.701Z,988.67
2018-03-02T06:24:17.689Z,988.66
2018-03-02T06:25:17.677Z,988.62
2018-03-02T06:26:17.665Z,988.63
2018-03-02T06:27:17.685Z,988.71
2018-03-02T06:28:17.640Z,988.66
2018-03-02T06:29:17.627Z,988.66
2018-03-02T06:30:17.614Z,988.67
2018-03-02T06:31:17.602Z,988.67
2018-03-02T06:32:17.591Z,988.72
2018-03-02T06:33:17.590Z,988.71
2018-03-02T06:34:17.566Z,988.71
2018-03-02T06:35:17.554Z,988.75
2018-03-02T06:36:17.542Z,988.72
2018-03-02T06:37:17.529Z,988.70
2018-03-02T06:38:17.533Z,988.77
2018-03-02T06:39:17.504Z,988.80
2018-03-02T06:40:17.493Z,988.79
2018-03-02T06:41:17.480Z,988.78
2018-03-02T06:42:17.467Z,988.76
2018-03-02T06:43:17.454Z,988.79
2018-03-02T06:44:17.461Z,988.83
2018-03-02T06:45:17.432Z,988.82
2018-03-02T06:46:17.418Z,988.79
2018-03-02T06:47:17.405Z,988.79
2018-03-02T06:48:17.393Z,988.80
2018-03-02T06:49:17.381Z,988.80
2018-03-02T06:50:17.376Z,988.80
2018-03-02T06:51:17.357Z,988.75
2018-03-02T06:52:17.345Z,988.77
2018-03-02T06:53:17.334Z,988.76
2018-03-02T06:54:17.318Z,988.72
2018-03-02T06:55:17.575Z,988.72
2018-03-02T06:56:17.294Z,988.69
2018-03-02T06:57:17.281Z,988.71
2018-03-02T06:58:17.269Z,988.71
2018-03-02T06:59:17.257Z,988.72
2018-03-02T07:00:17.244Z,988.68
2018-03-02T07:01:17.245Z,988.70
2018-03-02T07:02:17.220Z,988.69
2018-03-02T07:03:17.208Z,988.69
2018-03-02T07:04:17.234Z,988.71
2018-03-02T07:05:17.183Z,988.66
2018-03-02T07:06:17.170Z,988.66
2018-03-02T07:07:17.167Z,988.67
2018-03-02T07:08:17.146Z,988.64
2018-03-02T07:09:17.134Z,988.59
2018-03-02T07:10:17.119Z,988.62
2018-03-02T07:11:17.110Z,988.61
2018-03-02T07:12:17.109Z,988.62
2018-03-02T07:13:17.083Z,988.61
2018-03-02T07:14:17.069Z,988.60
2018-03-02T07:15:17.058Z,988.61
2018-03-02T07:16:17.049Z,988.59
2018-03-02T07:17:17.039Z,988.60
2018-03-02T07:18:17.035Z,988.56
2018-03-02T07:19:17.008Z,988.52
2018-03-02T07:20:16.996Z,988.53
2018-03-02T07:21:16.985Z,988.53
2018-03-02T07:22:16.969Z,988.57
2018-03-02T07:23:16.958Z,988.59
2018-03-02T07:24:16.957Z,988.58
2018-03-02T07:25:16.933Z,988.63
2018-03-02T07:26:16.920Z,988.62
2018-03-02T07:27:16.908Z,988.60
2018-03-02T07:28:16.896Z,988.59
2018-03-02T07:29:16.898Z,988.57
2018-03-02T07:30:16.870Z,988.55
2018-03-02T07:31:16.858Z,988.53
2018-03-02T07:32:16.845Z,988.54
2018-03-02T07:33:16.834Z,988.52
2018-03-02T07:34:16.820Z,988.53
2018-03-02T07:35:16.836Z,988.56
2018-03-02T07:36:16.795Z,988.51
2018-03-02T07:37:16.783Z,988.48
2018-03-02T07:38:16.770Z,988.50
2018-03-02T07:39:16.757Z,988.49
2018-03-02T07:40:16.748Z,988.45
2018-03-02T07:41:16.743Z,988.44
2018-03-02T07:42:16.720Z,988.47
2018-03-02T07:43:16.708Z,988.49
2018-03-02T07:44:16.729Z,988.46
2018-03-02T07:45:16.683Z,988.49
2018-03-02T07:46:16.937Z,988.45
2018-03-02T07:47:16.659Z,988.44
2018-03-02T07:48:16.649Z,988.47
2018-03-02T07:49:16.633Z,988.46
2018-03-02T07:50:16.620Z,988.42
2018-03-02T07:51:16.608Z,988.34
2018-03-02T07:52:16.611Z,988.37
2018-03-02T07:53:16.582Z,988.39
2018-03-02T07:54:16.569Z,988.32
2018-03-02T07:55:16.557Z,988.32
2018-03-02T07:56:16.544Z,988.34
2018-03-02T07:57:16.532Z,988.30
2018-03-02T07:58:16.529Z,988.30
2018-03-02T07:59:16.508Z,988.29
2018-03-02T08:00:16.494Z,988.30
2018-03-02T08:01:16.482Z,988.25
2018-03-02T08:02:16.472Z,988.26
2018-03-02T08:03:16.730Z,988.26
2018-03-02T08:04:16.452Z,988.25
2018-03-02T08:05:16.432Z,988.23
2018-03-02T08:06:16.420Z,988.25
2018-03-02T08:41:02.259Z,988.08
2018-03-02T08:42:02.238Z,988.06
2018-03-02T08:43:02.224Z,988.11
2018-03-02T08:44:02.211Z,988.12
2018-03-02T08:45:02.203Z,988.11
2018-03-02T08:46:02.201Z,988.17
2018-03-02T08:47:02.175Z,988.14
2018-03-02T08:48:02.161Z,988.17
2018-03-02T08:49:02.150Z,988.16
2018-03-02T08:50:02.144Z,988.13
2018-03-02T08:51:02.123Z,988.11
2018-03-02T08:52:02.120Z,988.10
2018-03-02T08:53:02.098Z,988.13
2018-03-02T08:54:02.085Z,988.11
2018-03-02T08:55:02.072Z,988.16
2018-03-02T08:56:02.059Z,988.14
2018-03-02T08:57:02.061Z,988.12
2018-03-02T08:58:02.040Z,988.12
2018-03-02T08:59:02.022Z,988.13
2018-03-02T09:00:02.011Z,988.14
2018-03-02T09:01:02.000Z,988.11
2018-03-02T09:02:02.001Z,988.11
2018-03-02T09:03:01.985Z,988.10
2018-03-02T09:04:01.960Z,988.09
2018-03-02T09:05:01.948Z,988.07
2018-03-02T09:06:01.933Z,988.03
2018-03-02T09:07:01.923Z,988.04
2018-03-02T09:08:01.925Z,988.14
2018-03-02T09:09:01.896Z,988.08
2018-03-02T09:10:01.883Z,988.10
2018-03-02T09:11:01.873Z,988.10
2018-03-02T09:12:01.856Z,988.15
2018-03-02T09:13:01.846Z,988.13
2018-03-02T09:14:01.844Z,988.12
2018-03-02T09:15:01.820Z,988.14
2018-03-02T09:16:01.806Z,988.16
2018-03-02T09:17:01.797Z,988.12
2018-03-02T09:18:01.781Z,988.14
2018-03-02T09:19:01.793Z,988.13
2018-03-02T09:20:01.755Z,988.13
2018-03-02T09:21:01.743Z,988.17
2018-03-02T09:22:01.730Z,988.16
2018-03-02T09:23:01.720Z,988.11
2018-03-02T09:24:01.709Z,988.07
2018-03-02T09:25:01.706Z,988.09
2018-03-02T09:26:01.682Z,988.15
2018-03-02T09:27:01.669Z,988.10
2018-03-02T09:28:01.655Z,988.12
2018-03-02T09:29:01.642Z,988.13
2018-03-02T09:30:01.668Z,988.14
2018-03-02T09:31:01.617Z,988.14
2018-03-02T09:32:01.604Z,988.21
2018-03-02T09:33:01.591Z,988.19
2018-03-02T09:34:01.578Z,988.18
2018-03-02T09:35:01.565Z,988.26
2018-03-02T09:36:01.569Z,988.19
2018-03-02T09:37:01.540Z,988.18
2018-03-02T09:38:01.529Z,988.16
2018-03-02T09:39:01.515Z,988.20
2018-03-02T09:40:01.499Z,988.21
2018-03-02T09:41:01.506Z,988.21
2018-03-02T09:42:01.479Z,988.21
2018-03-02T09:43:01.471Z,988.18
2018-03-02T09:44:01.452Z,988.26
2018-03-02T09:45:01.440Z,988.19
2018-03-02T09:46:01.426Z,988.17
2018-03-02T09:47:01.431Z,988.20
2018-03-02T09:48:01.402Z,988.15
2018-03-02T09:49:01.389Z,988.13
2018-03-02T09:50:01.377Z,988.17
2018-03-02T09:51:01.364Z,988.10
2018-03-02T09:52:01.349Z,988.11
2018-03-02T09:53:01.348Z,988.09
2018-03-02T09:54:01.361Z,988.06
2018-03-02T09:55:01.313Z,988.11
2018-03-02T09:56:01.300Z,988.13
2018-03-02T09:57:01.288Z,988.14
2018-03-02T09:58:01.286Z,988.15
2018-03-02T09:59:01.263Z,988.12
2018-03-02T10:00:01.247Z,988.11
2018-03-02T10:01:01.236Z,988.07
2018-03-02T10:02:01.224Z,988.10
2018-03-02T10:03:01.228Z,988.06
2018-03-02T10:04:01.199Z,988.07
2018-03-02T10:05:01.184Z,988.07
2018-03-02T10:06:01.172Z,988.05
2018-03-02T10:07:01.160Z,988.09
2018-03-02T10:08:01.147Z,988.10
2018-03-02T10:09:01.168Z,988.14
2018-03-02T10:10:01.126Z,988.10
2018-03-02T10:11:01.108Z,988.12
2018-03-02T10:12:01.095Z,988.14
2018-03-02T10:13:01.082Z,988.12
2018-03-02T10:14:01.071Z,988.11
2018-03-02T10:15:01.068Z,988.12
2018-03-02T10:16:01.044Z,988.14
2018-03-02T10:17:01.033Z,988.21
2018-03-02T10:18:01.020Z,988.20
2018-03-02T10:19:01.009Z,988.19
2018-03-02T10:20:01.018Z,988.18
2018-03-02T10:21:00.982Z,988.19
2018-03-02T10:22:00.968Z,988.17
2018-03-02T10:23:00.956Z,988.21
2018-03-02T10:24:00.944Z,988.20
2018-03-02T10:25:00.930Z,988.22
2018-03-02T10:26:00.929Z,988.25
2018-03-02T10:27:00.905Z,988.24
2018-03-02T10:28:00.892Z,988.25
2018-03-02T10:29:00.884Z,988.25
2018-03-02T10:30:00.867Z,988.28
2018-03-02T10:31:00.874Z,988.26
2018-03-02T10:32:00.842Z,988.26
2018-03-02T10:33:00.829Z,988.25
2018-03-02T10:34:00.816Z,988.30
2018-03-02T10:35:00.804Z,988.30
2018-03-02T10:36:00.789Z,988.31
2018-03-02T10:37:00.793Z,988.30
2018-03-02T10:38:00.765Z,988.31
2018-03-02T10:39:00.753Z,988.31
2018-03-02T10:40:00.740Z,988.30
2018-03-02T10:41:00.727Z,988.32
2018-03-02T10:42:00.727Z,988.32
2018-03-02T10:43:00.701Z,988.31
2018-03-02T10:44:00.687Z,988.31
2018-03-02T10:45:00.676Z,988.35
2018-03-02T10:46:00.662Z,988.37
2018-03-02T10:47:00.651Z,988.36
2018-03-02T10:48:00.656Z,988.40
2018-03-02T10:49:00.626Z,988.36
2018-03-02T10:50:00.611Z,988.35
2018-03-02T10:51:00.600Z,988.36
2018-03-02T10:52:00.586Z,988.35
2018-03-02T10:53:00.591Z,988.35
2018-03-02T10:54:00.561Z,988.38
2018-03-02T10:55:00.549Z,988.38
2018-03-02T10:56:00.535Z,988.39
2018-03-02T10:57:00.521Z,988.40
2018-03-02T10:58:00.510Z,988.38
2018-03-02T10:59:00.507Z,988.39
2018-03-02T11:00:00.488Z,988.39
2018-03-02T11:01:00.471Z,988.40
2018-03-02T11:02:00.459Z,988.39
2018-03-02T11:03:00.448Z,988.44
2018-03-02T11:04:00.442Z,988.42
2018-03-02T11:05:00.421Z,988.46
2018-03-02T11:06:00.410Z,988.46
2018-03-02T11:07:00.396Z,988.43
2018-03-02T11:08:00.392Z,988.40
2018-03-02T11:09:00.386Z,988.43
2018-03-02T11:10:00.358Z,988.46
2018-03-02T11:11:00.349Z,988.47
2018-03-02T11:12:00.328Z,988.46
2018-03-02T11:13:00.318Z,988.45
2018-03-02T11:14:00.306Z,988.47
2018-03-02T11:15:00.302Z,988.45
2018-03-02T11:16:00.280Z,988.46
2018-03-02T11:17:00.267Z,988.46
2018-03-02T11:18:00.254Z,988.45
2018-03-02T11:19:00.242Z,988.42
2018-03-02T11:20:00.246Z,988.39
2018-03-02T11:21:00.214Z,988.43
2018-03-02T11:22:00.203Z,988.41
2018-03-02T11:23:00.192Z,988.41
2018-03-02T11:24:00.178Z,988.41
2018-03-02T11:25:00.166Z,988.45
2018-03-02T11:26:00.164Z,988.44
2018-03-02T11:27:00.141Z,988.43
2018-03-02T11:28:00.128Z,988.43
2018-03-02T11:29:00.124Z,988.42
2018-03-02T11:30:00.102Z,988.38
2018-03-02T11:31:00.112Z,988.35
2018-03-02T11:32:00.077Z,988.31
2018-03-02T11:33:00.068Z,988.23
2018-03-02T11:34:00.050Z,988.22
2018-03-02T11:35:00.039Z,988.17
2018-03-02T11:36:00.025Z,988.18
2018-03-02T11:37:00.023Z,988.22
2018-03-02T11:37:59.999Z,988.18
2018-03-02T11:38:59.988Z,988.23
2018-03-02T11:39:59.974Z,988.23
2018-03-02T11:40:59.962Z,988.28
2018-03-02T11:41:59.969Z,988.26
2018-03-02T11:42:59.943Z,988.25
2018-03-02T11:43:59.930Z,988.18
2018-03-02T11:44:59.914Z,988.15
2018-03-02T11:45:59.903Z,988.13
2018-03-02T11:46:59.898Z,988.09
2018-03-02T11:47:59.905Z,988.07
2018-03-02T11:48:59.864Z,988.09
2018-03-02T11:49:59.850Z,988.11
2018-03-02T11:50:59.835Z,988.18
2018-03-02T11:51:59.821Z,988.18
2018-03-02T11:52:59.810Z,988.20
2018-03-02T11:53:59.807Z,988.16
2018-03-02T11:54:59.787Z,988.15
2018-03-02T11:55:59.776Z,988.20
2018-03-02T11:56:59.757Z,988.19
2018-03-02T11:57:59.747Z,988.21
2018-03-02T11:58:59.749Z,988.23
2018-03-02T11:59:59.722Z,988.23
2018-03-02T12:00:59.708Z,988.24
2018-03-02T12:01:59.693Z,988.22
2018-03-02T12:02:59.683Z,988.19
2018-03-02T12:03:59.691Z,988.20
2018-03-02T12:04:59.656Z,988.15
2018-03-02T12:05:59.645Z,988.13
2018-03-02T12:06:59.631Z,988.15
2018-03-02T12:07:59.618Z,988.16
2018-03-02T12:08:59.605Z,988.15
2018-03-02T12:09:59.611Z,988.13
2018-03-02T12:10:59.580Z,988.05
2018-03-02T12:11:59.567Z,988.02
2018-03-02T12:12:59.555Z,987.99
2018-03-02T12:13:59.543Z,988.06
2018-03-02T12:14:59.530Z,988.04
2018-03-02T12:15:59.527Z,988.12
2018-03-02T12:16:59.504Z,988.15
2018-03-02T12:17:59.491Z,988.15
2018-03-02T12:18:59.481Z,988.15
2018-03-02T12:19:59.465Z,988.12
2018-03-02T12:20:59.463Z,988.12
2018-03-02T12:21:59.440Z,988.18
2018-03-02T12:22:59.427Z,988.21
2018-03-02T12:23:59.414Z,988.21
2018-03-02T12:24:59.401Z,988.22
2018-03-02T12:25:59.403Z,988.22
2018-03-02T12:26:59.376Z,988.22
2018-03-02T12:27:59.363Z,988.20
2018-03-02T12:28:59.351Z,988.24
2018-03-02T12:29:59.338Z,988.27
2018-03-02T12:30:59.342Z,988.28
2018-03-02T12:31:59.326Z,988.29
2018-03-02T12:32:59.299Z,988.25
2018-03-02T12:33:59.286Z,988.23
2018-03-02T12:34:59.274Z,988.22
2018-03-02T12:35:59.262Z,988.24
2018-03-02T12:36:59.247Z,988.21
2018-03-02T12:37:59.246Z,988.27
2018-03-02T12:38:59.226Z,988.29
2018-03-02T12:39:59.211Z,988.26
2018-03-02T12:40:59.198Z,988.21
2018-03-02T12:41:59.200Z,988.21
2018-03-02T12:42:59.188Z,988.23
2018-03-02T12:43:59.162Z,988.23
2018-03-02T12:44:59.150Z,988.25
2018-03-02T12:45:59.137Z,988.34
2018-03-02T12:46:59.121Z,988.28
2018-03-02T12:47:59.108Z,988.29
2018-03-02T12:48:59.110Z,988.30
2018-03-02T12:49:59.083Z,988.31
2018-03-02T12:50:59.071Z,988.32
2018-03-02T12:51:59.057Z,988.32
2018-03-02T12:52:59.045Z,988.32
2018-03-02T12:53:59.032Z,988.37
2018-03-02T12:54:59.031Z,988.37
2018-03-02T12:55:59.006Z,988.33
2018-03-02T12:56:58.995Z,988.31
2018-03-02T12:57:58.981Z,988.29
2018-03-02T12:58:58.968Z,988.27
2018-03-02T12:59:58.971Z,988.27
2018-03-02T13:00:58.946Z,988.26
2018-03-02T13:01:58.937Z,988.30